Time;durP1;ratioP1;P1;durP2;ratioP2;P2;SDS_P1;SDS_P2;PMS_P1;PMS_P2;Temp;Humidity;BMP_temperature;BMP_pressure;BME280_temperature;BME280_humidity;BME280_pressure;Samples;Min_cycle;Max_cycle;Signal;HPM_P1;HPM_P2
2021/06/15 04:56:28;;;;;;;9.07;8.20;;;;;;;;;;5081255;27;20729;-58
2021/06/15 04:58:53;;;;;;;8.77;8.07;;;;;;;;;;5077832;28;20700;-58
2021/06/15 05:01:19;;;;;;;8.73;8.03;;;;;;;;;;5061015;28;21053;-59
2021/06/15 05:03:44;;;;;;;8.50;7.50;;;;;;;;;;5061720;28;20179;-59
2021/06/15 05:06:10;;;;;;;7.57;6.87;;;;;;;;;;5061494;28;20608;-59
2021/06/15 05:08:40;;;;;;;8.50;7.17;;;;;;;;;;5061693;28;20182;-59
2021/06/15 05:11:05;;;;;;;7.87;7.27;;;;;;;;;;5077303;28;20171;-59
2021/06/15 05:13:32;;;;;;;7.93;7.13;;;;;;;;;;5081248;28;21158;-60
2021/06/15 05:15:57;;;;;;;7.90;7.20;;;;;;;;;;5080288;28;20200;-60
2021/06/15 05:18:23;;;;;;;6.73;6.23;;;;;;;;;;5076952;28;20646;-60
2021/06/15 05:20:49;;;;;;;9.00;8.10;;;;;;;;;;5078782;28;20180;-59
2021/06/15 05:23:22;;;;;;;7.33;6.73;;;;;;;;;;5080760;28;20594;-59
2021/06/15 05:25:50;;;;;;;7.83;7.23;;;;;;;;;;5056511;28;20187;-59
2021/06/15 05:28:16;;;;;;;7.93;7.23;;;;;;;;;;5058491;28;21013;-58
2021/06/15 05:30:41;;;;;;;7.80;7.10;;;;;;;;;;5058323;28;20647;-59
2021/06/15 05:33:06;;;;;;;8.17;7.50;;;;;;;;;;5055157;28;20312;-59
2021/06/15 05:35:31;;;;;;;8.77;8.02;;;;;;;;;;5056581;28;20944;-59
2021/06/15 05:37:56;;;;;;;8.27;7.47;;;;;;;;;;5060374;28;20667;-59
2021/06/15 05:40:22;;;;;;;7.77;7.07;;;;;;;;;;5058758;28;20170;-59
2021/06/15 05:42:47;;;;;;;8.02;7.32;;;;;;;;;;5070784;28;20167;-59
2021/06/15 05:45:13;;;;;;;9.33;7.30;;;;;;;;;;5074745;28;20200;-58
2021/06/15 05:47:38;;;;;;;8.17;7.13;;;;;;;;;;5076781;28;20941;-59
2021/06/15 05:50:04;;;;;;;8.57;7.83;;;;;;;;;;5088880;28;20181;-59
2021/06/15 05:52:30;;;;;;;7.43;6.80;;;;;;;;;;5076272;28;20303;-59
2021/06/15 05:54:57;;;;;;;8.07;7.47;;;;;;;;;;5058616;28;20697;-59
2021/06/15 05:57:22;;;;;;;7.70;7.00;;;;;;;;;;5062926;28;20598;-59
2021/06/15 05:59:47;;;;;;;7.68;6.97;;;;;;;;;;5063524;28;20590;-60
2021/06/15 06:02:12;;;;;;;8.05;6.72;;;;;;;;;;5066688;28;20187;-60
2021/06/15 06:09:55;;;;;;;8.03;7.13;;;;;;;;;;5050567;28;20640;-59
2021/06/15 06:12:20;;;;;;;8.23;7.53;;;;;;;;;;5041767;28;20608;-58
2021/06/15 06:14:45;;;;;;;7.30;6.70;;;;;;;;;;5055312;28;20202;-59
2021/06/15 06:17:10;;;;;;;8.38;7.55;;;;;;;;;;5053767;28;20168;-58
2021/06/15 06:19:36;;;;;;;7.27;6.60;;;;;;;;;;5058878;28;20739;-60
2021/06/15 06:22:02;;;;;;;7.53;6.90;;;;;;;;;;5061693;28;20187;-60
2021/06/15 06:24:27;;;;;;;7.70;7.10;;;;;;;;;;5047988;28;20695;-59
2021/06/15 06:26:53;;;;;;;7.60;6.87;;;;;;;;;;5055416;28;20195;-59
2021/06/15 06:29:18;;;;;;;7.37;6.67;;;;;;;;;;5085020;28;20189;-59
2021/06/15 06:31:44;;;;;;;7.77;7.03;;;;;;;;;;5082830;28;20192;-59
2021/06/15 06:34:09;;;;;;;8.00;6.40;;;;;;;;;;5057357;28;20929;-59
2021/06/15 06:36:34;;;;;;;7.50;6.20;;;;;;;;;;5076950;28;20267;-59
2021/06/15 06:39:00;;;;;;;6.43;6.00;;;;;;;;;;5082278;28;20196;-58
2021/06/15 06:41:27;;;;;;;7.20;6.50;;;;;;;;;;5072385;28;20315;-59
2021/06/15 06:43:52;;;;;;;13.27;7.47;;;;;;;;;;5085080;28;20185;-59
2021/06/15 06:46:17;;;;;;;6.90;6.27;;;;;;;;;;5065062;28;20600;-59
2021/06/15 06:48:42;;;;;;;6.90;6.40;;;;;;;;;;5084137;28;20547;-58
2021/06/15 06:51:08;;;;;;;6.53;5.90;;;;;;;;;;5076421;28;20175;-58
2021/06/15 06:53:33;;;;;;;7.07;6.37;;;;;;;;;;5077855;28;20279;-58
2021/06/15 06:55:58;;;;;;;6.63;6.10;;;;;;;;;;5064461;28;20704;-59
2021/06/15 06:58:24;;;;;;;8.57;6.70;;;;;;;;;;5065664;28;20183;-59
2021/06/15 07:00:49;;;;;;;7.20;5.90;;;;;;;;;;5063755;28;20544;-59
2021/06/15 07:03:14;;;;;;;6.40;5.87;;;;;;;;;;5061528;28;20553;-59
2021/06/15 07:05:39;;;;;;;6.28;5.78;;;;;;;;;;5073463;28;20183;-58
2021/06/15 07:08:04;;;;;;;6.20;5.53;;;;;;;;;;5061469;28;20250;-58
2021/06/15 07:10:30;;;;;;;5.97;5.47;;;;;;;;;;5064700;28;20603;-58
2021/06/15 07:12:55;;;;;;;7.17;6.30;;;;;;;;;;5050607;28;20183;-59
2021/06/15 07:15:21;;;;;;;6.40;5.80;;;;;;;;;;5052755;28;20209;-59
2021/06/15 07:17:46;;;;;;;7.00;6.10;;;;;;;;;;5062131;28;20179;-59
2021/06/15 07:20:11;;;;;;;6.85;6.03;;;;;;;;;;5044928;28;20637;-58
2021/06/15 07:22:37;;;;;;;6.87;6.23;;;;;;;;;;5041930;28;20436;-59
2021/06/15 07:25:03;;;;;;;6.43;5.83;;;;;;;;;;5039293;28;20504;-59
2021/06/15 07:27:28;;;;;;;6.30;5.70;;;;;;;;;;5051082;28;20183;-58
2021/06/15 07:29:53;;;;;;;9.93;5.83;;;;;;;;;;5039781;28;21123;-58
2021/06/15 07:32:18;;;;;;;6.63;5.60;;;;;;;;;;5043202;28;20573;-58
2021/06/15 07:34:43;;;;;;;5.85;5.35;;;;;;;;;;5044820;28;20292;-58
2021/06/15 07:37:08;;;;;;;9.17;6.27;;;;;;;;;;5043118;28;20177;-58
2021/06/15 07:39:34;;;;;;;7.70;6.23;;;;;;;;;;5052388;28;20523;-58
2021/06/15 07:41:59;;;;;;;6.60;6.00;;;;;;;;;;5060762;28;20188;-58
2021/06/15 07:44:25;;;;;;;7.03;6.30;;;;;;;;;;5060649;28;20245;-58
2021/06/15 07:46:50;;;;;;;6.50;5.73;;;;;;;;;;5063802;28;20177;-59
2021/06/15 07:49:15;;;;;;;6.70;6.10;;;;;;;;;;5060386;28;20192;-58
2021/06/15 07:51:41;;;;;;;6.20;5.70;;;;;;;;;;5061899;28;20259;-58
2021/06/15 07:54:06;;;;;;;6.33;5.83;;;;;;;;;;5058477;28;20193;-59
2021/06/15 07:56:31;;;;;;;8.90;6.17;;;;;;;;;;5062203;28;20169;-59
2021/06/15 07:58:56;;;;;;;5.90;5.40;;;;;;;;;;5064139;28;20663;-59
2021/06/15 08:01:21;;;;;;;5.70;5.20;;;;;;;;;;5058630;28;20208;-59
2021/06/15 08:03:47;;;;;;;5.50;5.00;;;;;;;;;;5058478;28;20174;-59
2021/06/15 08:06:12;;;;;;;8.43;6.20;;;;;;;;;;5058736;28;20267;-59
2021/06/15 08:08:37;;;;;;;4.93;4.53;;;;;;;;;;5064096;28;20222;-59
2021/06/15 08:11:03;;;;;;;5.70;5.18;;;;;;;;;;5049681;28;20182;-59
2021/06/15 08:13:28;;;;;;;5.90;5.30;;;;;;;;;;5040549;28;20212;-58
2021/06/15 08:15:53;;;;;;;5.53;5.13;;;;;;;;;;5040494;28;20213;-58
2021/06/15 08:18:19;;;;;;;6.30;5.70;;;;;;;;;;5038365;28;20633;-59
2021/06/15 08:20:45;;;;;;;8.70;5.17;;;;;;;;;;5042999;28;20552;-59
2021/06/15 08:23:10;;;;;;;5.97;5.20;;;;;;;;;;5045850;28;20244;-59
2021/06/15 08:25:35;;;;;;;6.28;4.75;;;;;;;;;;5043802;28;20589;-59
2021/06/15 08:28:01;;;;;;;5.83;5.30;;;;;;;;;;5038299;28;20175;-59
2021/06/15 08:30:26;;;;;;;5.00;4.60;;;;;;;;;;5039782;28;20233;-59
2021/06/15 08:32:51;;;;;;;5.30;4.23;;;;;;;;;;5054784;28;20182;-58
2021/06/15 08:35:17;;;;;;;6.60;4.80;;;;;;;;;;5058068;28;20611;-59
2021/06/15 08:37:42;;;;;;;5.40;5.00;;;;;;;;;;5063594;28;20198;-59
2021/06/15 08:40:07;;;;;;;5.43;4.72;;;;;;;;;;5062162;28;20198;-59
2021/06/15 08:42:33;;;;;;;5.53;4.33;;;;;;;;;;5056350;28;20168;-60
2021/06/15 08:44:58;;;;;;;5.90;5.30;;;;;;;;;;5059474;28;20193;-60
2021/06/15 08:47:24;;;;;;;4.50;4.10;;;;;;;;;;5058053;28;20610;-59
2021/06/15 08:49:49;;;;;;;7.43;4.67;;;;;;;;;;5061939;28;20182;-59
2021/06/15 08:52:14;;;;;;;4.93;4.40;;;;;;;;;;5061774;28;20648;-59
2021/06/15 08:54:40;;;;;;;5.30;4.80;;;;;;;;;;5059848;28;20316;-59
2021/06/15 08:57:05;;;;;;;6.83;4.77;;;;;;;;;;5058314;28;20170;-59
2021/06/15 08:59:31;;;;;;;4.90;4.50;;;;;;;;;;5059700;28;20177;-59
2021/06/15 09:01:56;;;;;;;5.67;4.83;;;;;;;;;;5061435;28;20675;-59
2021/06/15 09:04:21;;;;;;;5.20;4.80;;;;;;;;;;5058311;28;20232;-59
2021/06/15 09:06:47;;;;;;;6.70;4.40;;;;;;;;;;5056044;28;20190;-59
2021/06/15 09:09:12;;;;;;;4.93;4.53;;;;;;;;;;5057285;28;20181;-59
2021/06/15 09:11:57;;;;;;;5.00;4.70;;;;;;;;;;5059644;28;20201;-59
2021/06/15 09:14:41;;;;;;;5.17;4.80;;;;;;;;;;5059338;28;20167;-59
2021/06/15 09:17:10;;;;;;;5.57;4.77;;;;;;;;;;5061316;28;20551;-59
2021/06/15 09:19:39;;;;;;;6.23;4.80;;;;;;;;;;5062674;28;20577;-60
2021/06/15 09:22:05;;;;;;;5.00;4.70;;;;;;;;;;5059172;28;20545;-59
2021/06/15 09:24:30;;;;;;;5.23;4.63;;;;;;;;;;5058821;28;20693;-60
2021/06/15 09:27:08;;;;;;;6.17;5.00;;;;;;;;;;5057296;28;20182;-60
2021/06/15 09:29:33;;;;;;;4.93;4.60;;;;;;;;;;5062956;28;20194;-59
2021/06/15 09:31:58;;;;;;;5.40;5.00;;;;;;;;;;5062447;28;20582;-59
2021/06/15 09:34:23;;;;;;;6.53;5.50;;;;;;;;;;5059292;28;20266;-59
2021/06/15 09:36:51;;;;;;;6.10;5.22;;;;;;;;;;5048138;28;20192;-59
2021/06/15 09:39:17;;;;;;;5.57;5.07;;;;;;;;;;5039027;28;20183;-59
2021/06/15 09:41:43;;;;;;;5.70;5.13;;;;;;;;;;5043962;28;20537;-60
2021/06/15 09:44:13;;;;;;;6.33;4.77;;;;;;;;;;5045015;28;20178;-59
2021/06/15 09:46:43;;;;;;;6.50;5.20;;;;;;;;;;5044356;28;20679;-60
2021/06/15 09:49:09;;;;;;;5.00;4.70;;;;;;;;;;5061380;28;21123;-60
2021/06/15 09:51:34;;;;;;;5.47;5.07;;;;;;;;;;5062360;28;20552;-59
2021/06/15 09:53:59;;;;;;;6.15;5.22;;;;;;;;;;5062264;28;20858;-58
2021/06/15 09:56:24;;;;;;;5.25;4.85;;;;;;;;;;5064742;28;20266;-59
2021/06/15 09:58:51;;;;;;;4.97;4.20;;;;;;;;;;5062945;28;20587;-59
2021/06/15 10:01:27;;;;;;;5.70;4.37;;;;;;;;;;5061102;28;20633;-58
2021/06/15 10:04:08;;;;;;;5.53;5.13;;;;;;;;;;5060602;28;21418;-59
2021/06/15 10:06:41;;;;;;;5.03;4.73;;;;;;;;;;5062931;28;20685;-59
2021/06/15 10:09:06;;;;;;;5.20;4.80;;;;;;;;;;5062462;28;20583;-59
2021/06/15 10:11:32;;;;;;;5.27;4.87;;;;;;;;;;5058566;28;20969;-59
2021/06/15 10:13:57;;;;;;;4.80;4.40;;;;;;;;;;5042544;28;20195;-59
2021/06/15 10:16:22;;;;;;;4.57;4.17;;;;;;;;;;5040779;28;20613;-59
2021/06/15 10:18:47;;;;;;;4.93;4.60;;;;;;;;;;5048888;28;20272;-59
2021/06/15 10:21:13;;;;;;;5.67;5.13;;;;;;;;;;5054306;28;20652;-60
2021/06/15 10:23:38;;;;;;;5.23;4.90;;;;;;;;;;5065779;28;20167;-59
2021/06/15 10:26:06;;;;;;;5.60;5.10;;;;;;;;;;5065278;28;20178;-60
2021/06/15 10:28:31;;;;;;;5.43;5.03;;;;;;;;;;5062109;28;20270;-58
2021/06/15 10:31:00;;;;;;;4.77;4.47;;;;;;;;;;5041841;28;20673;-58
2021/06/15 10:33:26;;;;;;;4.70;4.30;;;;;;;;;;5040135;28;20547;-58
2021/06/15 10:35:53;;;;;;;5.77;5.27;;;;;;;;;;5041571;28;20637;-59
2021/06/15 10:38:39;;;;;;;6.10;5.50;;;;;;;;;;5045574;28;20600;-59
2021/06/15 10:41:04;;;;;;;5.77;5.27;;;;;;;;;;5061492;28;21308;-59
2021/06/15 10:43:30;;;;;;;6.83;5.17;;;;;;;;;;5061618;28;20559;-59
2021/06/15 10:46:00;;;;;;;5.00;4.60;;;;;;;;;;5061383;28;20554;-58
2021/06/15 10:48:29;;;;;;;5.50;5.10;;;;;;;;;;5061664;28;20611;-58
2021/06/15 10:50:56;;;;;;;5.20;4.70;;;;;;;;;;5062744;28;20688;-59
2021/06/15 10:53:39;;;;;;;5.47;4.10;;;;;;;;;;5064187;28;20658;-59
2021/06/15 10:56:05;;;;;;;4.43;4.13;;;;;;;;;;5062851;28;21219;-59
2021/06/15 10:58:38;;;;;;;4.70;4.30;;;;;;;;;;5061547;28;21130;-59
2021/06/15 11:01:15;;;;;;;5.03;4.73;;;;;;;;;;5041732;28;20588;-59
2021/06/15 11:04:04;;;;;;;4.33;3.93;;;;;;;;;;5063339;28;20585;-59
2021/06/15 11:06:29;;;;;;;5.47;4.73;;;;;;;;;;5061046;28;20599;-59
2021/06/15 11:09:03;;;;;;;4.40;4.10;;;;;;;;;;5064713;28;20569;-60
2021/06/15 11:11:29;;;;;;;4.90;4.50;;;;;;;;;;5057856;28;20175;-59
2021/06/15 11:13:55;;;;;;;4.53;4.13;;;;;;;;;;5061091;28;20555;-59
2021/06/15 11:16:21;;;;;;;4.73;4.33;;;;;;;;;;5060871;28;20625;-60
2021/06/15 11:18:46;;;;;;;5.07;4.67;;;;;;;;;;5064544;28;20569;-60
2021/06/15 11:21:15;;;;;;;4.90;4.50;;;;;;;;;;5061615;28;20240;-60
2021/06/15 11:23:40;;;;;;;5.23;4.73;;;;;;;;;;5062628;28;20183;-58
2021/06/15 11:26:13;;;;;;;5.20;4.80;;;;;;;;;;5060595;28;20585;-58
2021/06/15 11:28:42;;;;;;;5.20;4.77;;;;;;;;;;5060631;28;20598;-58
2021/06/15 11:31:16;;;;;;;4.40;4.10;;;;;;;;;;5062662;28;20600;-59
2021/06/15 11:34:00;;;;;;;4.47;4.10;;;;;;;;;;5043013;28;20576;-57
2021/06/15 11:36:38;;;;;;;4.90;4.40;;;;;;;;;;5044538;28;20585;-59
2021/06/15 11:39:27;;;;;;;4.90;4.50;;;;;;;;;;5042134;28;20545;-60
2021/06/15 11:42:19;;;;;;;5.33;4.93;;;;;;;;;;5044206;28;20552;-59
2021/06/15 11:44:56;;;;;;;4.30;3.90;;;;;;;;;;5055678;28;20583;-59
2021/06/15 11:47:21;;;;;;;4.50;4.20;;;;;;;;;;5058309;28;20997;-59
2021/06/15 11:50:06;;;;;;;5.33;4.80;;;;;;;;;;5060285;28;21097;-60
2021/06/15 11:52:31;;;;;;;5.60;5.27;;;;;;;;;;5064004;28;20236;-59
2021/06/15 11:54:57;;;;;;;5.10;4.70;;;;;;;;;;5061897;28;21006;-59
2021/06/15 11:57:22;;;;;;;5.27;4.77;;;;;;;;;;5060646;28;20181;-58
2021/06/15 11:59:47;;;;;;;4.85;4.55;;;;;;;;;;5058807;28;21103;-59
2021/06/15 12:02:16;;;;;;;4.27;3.97;;;;;;;;;;5058972;28;20201;-60
2021/06/15 12:04:42;;;;;;;5.40;5.00;;;;;;;;;;5049582;28;20203;-60
2021/06/15 12:07:17;;;;;;;5.35;4.60;;;;;;;;;;5043938;28;20646;-60
2021/06/15 12:10:04;;;;;;;5.40;5.00;;;;;;;;;;5041891;28;20270;-60
2021/06/15 12:12:30;;;;;;;5.40;4.90;;;;;;;;;;5038491;28;20561;-60
2021/06/15 12:14:55;;;;;;;4.83;4.53;;;;;;;;;;5044285;28;20629;-60
2021/06/15 12:17:20;;;;;;;5.67;5.10;;;;;;;;;;5063784;28;20278;-59
2021/06/15 12:19:45;;;;;;;5.13;4.63;;;;;;;;;;5063870;28;20172;-59
2021/06/15 12:22:16;;;;;;;4.63;4.30;;;;;;;;;;5061437;28;20620;-59
2021/06/15 12:24:42;;;;;;;4.90;4.50;;;;;;;;;;5059885;28;20202;-59
2021/06/15 12:27:17;;;;;;;4.70;4.30;;;;;;;;;;5056064;28;20600;-59
2021/06/15 12:29:43;;;;;;;5.30;4.90;;;;;;;;;;5060002;28;20551;-58
2021/06/15 12:32:08;;;;;;;5.32;4.82;;;;;;;;;;5061428;28;20635;-59
2021/06/15 12:34:33;;;;;;;5.47;4.97;;;;;;;;;;5063140;28;20171;-60
2021/06/15 12:37:03;;;;;;;4.67;4.27;;;;;;;;;;5060837;28;20175;-59
2021/06/15 12:39:29;;;;;;;5.63;5.13;;;;;;;;;;5057507;28;20270;-59
2021/06/15 12:41:59;;;;;;;6.47;5.33;;;;;;;;;;5059501;28;20670;-60
2021/06/15 12:44:25;;;;;;;5.03;4.20;;;;;;;;;;5055445;28;20602;-59
2021/06/15 12:46:58;;;;;;;4.37;3.97;;;;;;;;;;5047955;28;20568;-59
2021/06/15 12:49:23;;;;;;;4.60;4.30;;;;;;;;;;5060744;28;20618;-59
2021/06/15 12:51:50;;;;;;;4.70;4.30;;;;;;;;;;5039940;28;20584;-59
2021/06/15 12:54:27;;;;;;;4.80;4.30;;;;;;;;;;5037804;28;20181;-61
2021/06/15 12:56:53;;;;;;;5.30;4.80;;;;;;;;;;5043475;28;20580;-59
2021/06/15 12:59:18;;;;;;;5.20;4.80;;;;;;;;;;5061514;28;20551;-59
2021/06/15 13:01:43;;;;;;;8.67;4.30;;;;;;;;;;5058007;28;20578;-58
2021/06/15 13:04:18;;;;;;;5.35;4.85;;;;;;;;;;5057660;28;20179;-59
2021/06/15 13:06:44;;;;;;;5.00;4.60;;;;;;;;;;5057543;28;20205;-59
2021/06/15 13:09:13;;;;;;;4.80;4.40;;;;;;;;;;5059123;28;20576;-59
2021/06/15 13:11:38;;;;;;;4.40;4.00;;;;;;;;;;5063358;28;20691;-59
2021/06/15 13:14:04;;;;;;;5.63;4.88;;;;;;;;;;5057811;28;20586;-58
2021/06/15 13:16:33;;;;;;;4.60;4.30;;;;;;;;;;5060299;28;20700;-59
2021/06/15 13:18:59;;;;;;;5.43;5.03;;;;;;;;;;5063329;28;20704;-59
2021/06/15 13:21:40;;;;;;;5.40;5.00;;;;;;;;;;5067237;28;21355;-59
2021/06/15 13:24:06;;;;;;;5.20;4.60;;;;;;;;;;5061455;28;20179;-59
2021/06/15 13:26:32;;;;;;;5.40;4.90;;;;;;;;;;5059616;28;20601;-59
2021/06/15 13:29:00;;;;;;;5.20;4.80;;;;;;;;;;5063521;28;20563;-58
2021/06/15 13:31:26;;;;;;;5.20;4.80;;;;;;;;;;5067185;28;20171;-59
2021/06/15 13:34:01;;;;;;;5.30;4.90;;;;;;;;;;5063392;28;20764;-58
2021/06/15 13:36:26;;;;;;;5.37;4.87;;;;;;;;;;5063140;28;20206;-58
2021/06/15 13:38:52;;;;;;;4.40;4.10;;;;;;;;;;5061460;28;20950;-59
2021/06/15 13:41:23;;;;;;;6.10;5.10;;;;;;;;;;5062877;28;20179;-58
2021/06/15 13:43:48;;;;;;;5.57;5.00;;;;;;;;;;5052436;28;20184;-60
2021/06/15 13:46:15;;;;;;;5.65;5.05;;;;;;;;;;5042963;28;20570;-60
2021/06/15 13:48:40;;;;;;;5.20;4.73;;;;;;;;;;5059986;28;20273;-59
2021/06/15 13:51:08;;;;;;;5.40;4.90;;;;;;;;;;5061180;28;20677;-58
2021/06/15 13:53:35;;;;;;;5.50;5.17;;;;;;;;;;5064342;28;20269;-59
2021/06/15 13:56:00;;;;;;;5.70;5.30;;;;;;;;;;5065508;28;20748;-60
2021/06/15 13:58:25;;;;;;;5.55;5.22;;;;;;;;;;5062600;28;21168;-58
2021/06/15 14:00:51;;;;;;;5.55;5.05;;;;;;;;;;5062476;28;20167;-59
2021/06/15 14:03:16;;;;;;;4.90;4.50;;;;;;;;;;5059033;28;20175;-59
2021/06/15 14:05:42;;;;;;;5.05;4.60;;;;;;;;;;5061074;28;20175;-58
2021/06/15 14:08:07;;;;;;;5.27;4.87;;;;;;;;;;5060821;28;20172;-60
2021/06/15 14:10:33;;;;;;;5.80;5.30;;;;;;;;;;5062713;28;21126;-59
2021/06/15 14:12:59;;;;;;;5.73;5.33;;;;;;;;;;5066381;28;20203;-59
2021/06/15 14:15:25;;;;;;;6.40;5.90;;;;;;;;;;5060602;28;20211;-58
2021/06/15 14:17:51;;;;;;;5.83;5.37;;;;;;;;;;5062645;28;20171;-59
2021/06/15 14:20:20;;;;;;;6.23;5.50;;;;;;;;;;5059123;28;20736;-59
2021/06/15 14:22:47;;;;;;;5.90;5.40;;;;;;;;;;5060632;28;20256;-59
2021/06/15 14:25:14;;;;;;;6.17;5.63;;;;;;;;;;5062219;28;20569;-59
2021/06/15 14:27:40;;;;;;;5.83;5.30;;;;;;;;;;5066288;28;20568;-59
2021/06/15 14:30:07;;;;;;;5.70;5.20;;;;;;;;;;5060099;28;21123;-59
2021/06/15 14:32:32;;;;;;;5.50;5.10;;;;;;;;;;5061703;28;20464;-59
2021/06/15 14:34:57;;;;;;;6.30;5.80;;;;;;;;;;5059147;28;20755;-59
2021/06/15 14:37:22;;;;;;;6.40;5.90;;;;;;;;;;5063015;28;20172;-59
2021/06/15 14:39:47;;;;;;;5.93;5.33;;;;;;;;;;5066150;28;20309;-60
2021/06/15 14:42:13;;;;;;;5.87;5.20;;;;;;;;;;5062305;28;20262;-59
2021/06/15 14:44:38;;;;;;;5.83;5.33;;;;;;;;;;5060095;28;20174;-59
2021/06/15 14:47:04;;;;;;;6.20;5.70;;;;;;;;;;5044161;28;20184;-59
2021/06/15 14:49:29;;;;;;;6.03;5.60;;;;;;;;;;5041874;28;20261;-59
2021/06/15 14:51:54;;;;;;;6.30;5.10;;;;;;;;;;5043868;28;20203;-60
2021/06/15 14:54:20;;;;;;;5.60;5.10;;;;;;;;;;5042978;28;20625;-59
2021/06/15 14:56:45;;;;;;;5.33;4.83;;;;;;;;;;5063235;28;20195;-59
2021/06/15 14:59:10;;;;;;;5.40;5.00;;;;;;;;;;5059899;28;20176;-59
2021/06/15 15:01:39;;;;;;;6.93;5.90;;;;;;;;;;5060233;28;20163;-60
2021/06/15 15:04:05;;;;;;;6.07;5.57;;;;;;;;;;5061081;28;20174;-61
2021/06/15 15:06:30;;;;;;;6.93;6.30;;;;;;;;;;5060228;28;20596;-60
2021/06/15 15:08:56;;;;;;;6.90;6.30;;;;;;;;;;5065634;28;20550;-60
2021/06/15 15:11:21;;;;;;;6.20;5.70;;;;;;;;;;5063701;28;20255;-61
2021/06/15 15:13:46;;;;;;;5.70;5.30;;;;;;;;;;5061470;28;20172;-62
2021/06/15 15:16:13;;;;;;;6.33;5.93;;;;;;;;;;5056873;28;20206;-61
2021/06/15 15:18:39;;;;;;;8.30;5.93;;;;;;;;;;5058706;28;20653;-60
2021/06/15 15:21:04;;;;;;;6.40;5.80;;;;;;;;;;5043288;28;20557;-59
2021/06/15 15:23:30;;;;;;;5.90;5.40;;;;;;;;;;5044577;28;20839;-60
2021/06/15 15:25:55;;;;;;;5.73;5.27;;;;;;;;;;5042079;28;20172;-60
2021/06/15 15:28:21;;;;;;;6.23;5.63;;;;;;;;;;5059723;28;20599;-60
2021/06/15 15:30:46;;;;;;;6.73;5.97;;;;;;;;;;5059333;28;20175;-60
2021/06/15 15:33:11;;;;;;;6.30;5.80;;;;;;;;;;5062616;28;20317;-60
2021/06/15 15:35:36;;;;;;;6.40;5.90;;;;;;;;;;5059945;28;20308;-61
2021/06/15 15:38:02;;;;;;;6.60;6.00;;;;;;;;;;5041265;28;20862;-61
2021/06/15 15:40:27;;;;;;;6.40;5.80;;;;;;;;;;5040366;28;20172;-60
2021/06/15 15:42:52;;;;;;;5.70;5.27;;;;;;;;;;5039111;28;20543;-60
2021/06/15 15:45:19;;;;;;;8.73;5.60;;;;;;;;;;5051399;28;20179;-59
2021/06/15 15:47:44;;;;;;;5.57;5.17;;;;;;;;;;5059323;28;20179;-59
2021/06/15 15:50:10;;;;;;;5.73;5.23;;;;;;;;;;5061643;28;20689;-59
2021/06/15 15:52:36;;;;;;;5.87;5.47;;;;;;;;;;5064468;28;20213;-59
2021/06/15 15:55:01;;;;;;;6.03;5.53;;;;;;;;;;5062481;28;20636;-59
2021/06/15 15:57:27;;;;;;;6.70;6.10;;;;;;;;;;5058684;28;20175;-58
2021/06/15 15:59:52;;;;;;;6.60;5.90;;;;;;;;;;5058464;28;20212;-58
2021/06/15 16:02:17;;;;;;;6.03;5.63;;;;;;;;;;5062479;28;20563;-58
2021/06/15 16:04:45;;;;;;;7.10;5.53;;;;;;;;;;5064103;28;20171;-59
2021/06/15 16:07:11;;;;;;;6.20;5.70;;;;;;;;;;5056986;28;20175;-59
2021/06/15 16:09:36;;;;;;;6.73;6.13;;;;;;;;;;5059014;28;21039;-59
2021/06/15 16:12:02;;;;;;;6.90;6.30;;;;;;;;;;5048809;28;20206;-60
2021/06/15 16:14:27;;;;;;;7.70;7.00;;;;;;;;;;5048309;28;20203;-58
2021/06/15 16:16:52;;;;;;;6.10;5.70;;;;;;;;;;5044232;28;20906;-58
2021/06/15 16:19:17;;;;;;;6.00;5.50;;;;;;;;;;5049694;28;20176;-59
2021/06/15 16:21:42;;;;;;;6.13;5.73;;;;;;;;;;5056988;28;20612;-59
2021/06/15 16:24:08;;;;;;;5.23;4.93;;;;;;;;;;5055761;28;20193;-59
2021/06/15 16:26:34;;;;;;;6.50;6.00;;;;;;;;;;5052078;28;20188;-60
2021/06/15 16:28:59;;;;;;;6.20;5.73;;;;;;;;;;5039777;28;20629;-59
2021/06/15 16:31:24;;;;;;;5.67;5.27;;;;;;;;;;5054545;28;20588;-59
2021/06/15 16:33:49;;;;;;;5.82;5.30;;;;;;;;;;5039643;28;20207;-59
2021/06/15 16:36:14;;;;;;;6.28;5.65;;;;;;;;;;5037441;28;20666;-59
2021/06/15 16:38:39;;;;;;;6.00;5.40;;;;;;;;;;5047029;28;20176;-60
2021/06/15 16:41:05;;;;;;;6.60;6.00;;;;;;;;;;5047142;28;20218;-60
2021/06/15 16:43:30;;;;;;;6.55;5.97;;;;;;;;;;5050126;28;20195;-59
2021/06/15 16:45:55;;;;;;;7.17;5.90;;;;;;;;;;5041012;28;20274;-59
2021/06/15 16:48:20;;;;;;;6.38;5.78;;;;;;;;;;5056472;28;20175;-59
2021/06/15 16:50:46;;;;;;;6.57;5.97;;;;;;;;;;5055119;28;20665;-58
2021/06/15 16:53:11;;;;;;;6.90;6.30;;;;;;;;;;5054136;28;20269;-59
2021/06/15 16:55:36;;;;;;;6.93;6.30;;;;;;;;;;5054456;28;20230;-59
2021/06/15 16:58:02;;;;;;;7.03;6.43;;;;;;;;;;5054102;28;20176;-59
2021/06/15 17:00:28;;;;;;;7.20;6.50;;;;;;;;;;5056320;28;20175;-58
2021/06/15 17:02:53;;;;;;;7.57;6.73;;;;;;;;;;5044902;28;20627;-58
2021/06/15 17:05:18;;;;;;;7.60;7.00;;;;;;;;;;5051267;28;20179;-59
2021/06/15 17:07:45;;;;;;;8.10;7.33;;;;;;;;;;5047041;28;20183;-59
2021/06/15 17:10:12;;;;;;;8.07;7.37;;;;;;;;;;5052430;28;20321;-59
2021/06/15 17:12:38;;;;;;;7.70;7.10;;;;;;;;;;5042197;28;20580;-59
2021/06/15 17:15:05;;;;;;;8.13;7.43;;;;;;;;;;5060535;28;20641;-59
2021/06/15 17:17:30;;;;;;;8.30;7.53;;;;;;;;;;5053938;28;20678;-59
2021/06/15 17:19:55;;;;;;;8.37;7.63;;;;;;;;;;5061646;28;20599;-59
2021/06/15 17:22:20;;;;;;;8.10;7.50;;;;;;;;;;5054995;28;20186;-61
2021/06/15 17:24:45;;;;;;;8.33;7.63;;;;;;;;;;5056555;28;20347;-60
2021/06/15 17:27:11;;;;;;;7.90;7.00;;;;;;;;;;5059587;28;20183;-59
2021/06/15 17:29:36;;;;;;;8.13;7.40;;;;;;;;;;5055163;28;20187;-60
2021/06/15 17:32:01;;;;;;;7.43;6.83;;;;;;;;;;5053140;28;20197;-60
2021/06/15 17:34:26;;;;;;;8.80;8.10;;;;;;;;;;5044224;28;20191;-60
2021/06/15 17:36:51;;;;;;;7.97;7.37;;;;;;;;;;5047620;28;20337;-60
2021/06/15 17:39:17;;;;;;;8.07;7.47;;;;;;;;;;5049748;28;20210;-60
2021/06/15 17:41:42;;;;;;;7.10;6.60;;;;;;;;;;5046523;28;20232;-60
2021/06/15 17:44:07;;;;;;;9.15;7.60;;;;;;;;;;5058738;28;20179;-59
2021/06/15 17:46:32;;;;;;;8.27;7.57;;;;;;;;;;5055107;28;20542;-59
2021/06/15 17:48:57;;;;;;;7.50;7.00;;;;;;;;;;5051380;28;20248;-59
2021/06/15 17:51:22;;;;;;;7.80;7.20;;;;;;;;;;5041858;28;20519;-59
2021/06/15 17:53:48;;;;;;;8.43;7.83;;;;;;;;;;5061777;28;20238;-59
2021/06/15 17:56:14;;;;;;;8.50;7.80;;;;;;;;;;5050555;28;20235;-59
2021/06/15 17:58:42;;;;;;;8.10;7.47;;;;;;;;;;5037391;28;20218;-58
2021/06/15 18:01:07;;;;;;;8.60;7.90;;;;;;;;;;5037097;28;20567;-59
2021/06/15 18:03:33;;;;;;;7.80;7.30;;;;;;;;;;5052256;28;20591;-60
2021/06/15 18:06:01;;;;;;;9.00;8.20;;;;;;;;;;5055876;28;20647;-59
2021/06/15 18:08:29;;;;;;;7.70;7.20;;;;;;;;;;5054506;28;20192;-59
2021/06/15 18:10:56;;;;;;;8.80;8.10;;;;;;;;;;5045180;28;20583;-60
2021/06/15 18:13:21;;;;;;;8.77;8.07;;;;;;;;;;5051432;28;20628;-59
2021/06/15 18:15:47;;;;;;;8.40;7.80;;;;;;;;;;5043480;28;20604;-60
2021/06/15 18:18:12;;;;;;;8.93;8.30;;;;;;;;;;5048109;28;20197;-59
2021/06/15 18:20:39;;;;;;;8.93;8.33;;;;;;;;;;5062634;28;20194;-60
2021/06/15 18:23:04;;;;;;;8.80;8.10;;;;;;;;;;5059773;28;20178;-60
2021/06/15 18:25:30;;;;;;;8.90;8.20;;;;;;;;;;5054026;28;20611;-60
2021/06/15 18:27:56;;;;;;;9.10;8.33;;;;;;;;;;5051446;28;20297;-60
2021/06/15 18:30:21;;;;;;;9.30;8.60;;;;;;;;;;5056675;28;20582;-60
2021/06/15 18:32:47;;;;;;;9.27;8.63;;;;;;;;;;5059157;28;20179;-59
2021/06/15 18:35:12;;;;;;;9.10;8.40;;;;;;;;;;5044770;28;20690;-60
2021/06/15 18:37:38;;;;;;;9.50;8.63;;;;;;;;;;5058550;28;20196;-60
2021/06/15 18:40:04;;;;;;;9.93;9.03;;;;;;;;;;5057103;28;20186;-60
2021/06/15 18:42:30;;;;;;;8.97;8.27;;;;;;;;;;5043842;28;20186;-60
2021/06/15 18:44:55;;;;;;;9.67;8.77;;;;;;;;;;5038671;28;20178;-59
2021/06/15 18:47:20;;;;;;;8.47;7.80;;;;;;;;;;5047334;28;21624;-59
2021/06/15 18:49:45;;;;;;;9.20;8.40;;;;;;;;;;5055981;28;20643;-59
2021/06/15 18:52:10;;;;;;;10.50;9.50;;;;;;;;;;5043345;28;20225;-59
2021/06/15 18:54:35;;;;;;;10.52;9.60;;;;;;;;;;5057636;28;20229;-59
2021/06/15 18:57:01;;;;;;;9.93;9.23;;;;;;;;;;5043475;28;20188;-59
2021/06/15 18:59:26;;;;;;;10.57;9.53;;;;;;;;;;5042799;28;20182;-60
2021/06/15 19:01:51;;;;;;;10.20;9.30;;;;;;;;;;5063313;28;20571;-61
2021/06/15 19:04:16;;;;;;;9.10;8.50;;;;;;;;;;5055368;28;20242;-60
2021/06/15 19:06:42;;;;;;;10.17;9.27;;;;;;;;;;5050577;28;20208;-60
2021/06/15 19:09:07;;;;;;;10.73;9.73;;;;;;;;;;5055430;28;20185;-60
2021/06/15 19:11:32;;;;;;;10.40;9.57;;;;;;;;;;5052964;28;20225;-59
2021/06/15 19:13:58;;;;;;;9.63;8.93;;;;;;;;;;5062755;28;20183;-59
2021/06/15 19:16:23;;;;;;;9.57;8.87;;;;;;;;;;5048544;28;20201;-59
2021/06/15 19:18:48;;;;;;;9.43;8.60;;;;;;;;;;5061181;28;20184;-59
2021/06/15 19:21:16;;;;;;;9.83;8.63;;;;;;;;;;5069160;28;20168;-59
2021/06/15 19:23:44;;;;;;;9.33;8.63;;;;;;;;;;5068128;28;20183;-60
2021/06/15 19:26:16;;;;;;;9.10;8.40;;;;;;;;;;5057664;28;20626;-59
2021/06/15 19:28:42;;;;;;;9.87;9.10;;;;;;;;;;5055706;28;20636;-59
2021/06/15 19:31:07;;;;;;;9.90;9.07;;;;;;;;;;5054312;28;20616;-59
2021/06/15 19:33:33;;;;;;;9.60;8.80;;;;;;;;;;5045863;28;20270;-59
2021/06/15 19:36:00;;;;;;;10.20;9.40;;;;;;;;;;5047787;28;20209;-60
2021/06/15 19:38:25;;;;;;;10.30;9.40;;;;;;;;;;5056212;28;20182;-60
2021/06/15 19:40:50;;;;;;;9.43;8.67;;;;;;;;;;5060430;28;20681;-60